Airfield :
LOGIN :

Register | Disclaimer

   EN    FR    IT 

 










Legend :    VFR   Marginal VFR   IFR   Intensive IFR   Very Intensive IFR
Visi :
Ceiling :
>= 8 km
>= 3000ft
5 to 8 km
1000 to 3000 ft
1500m to 5 km
500 to 1000 ft
800 to 1500m
200 to 500 ft
< 800m
< 200 ft
Symbols :   Thunderstorms  Fog  Heavy snow  Heavy precipitations  Wind > 20 kt
SIGMETs :     Misc.  Thunderstorms  Icing  Turbulence  Mountain Waves  Volcanic Ashes







- Airport Elevation : 49 ft
- IATA code : GLZ


EHGR - Gilze-Rijen Airbase

CURRENT METAR :
  • 160155Z AUTO 18005KT 140V200 6000 BR NCD 13/13 Q1017 WHT

EXPIRED METARs :
  • 160125Z AUTO VRB02KT 6000 BR NCD 13/13 Q1017 WHT
  • 160107Z AUTO 18002KT 7000 BR FEW036 13/13 Q1017 WHT
  • 160055Z AUTO 17002KT 9000 BR FEW037 14/13 Q1017 BLU
  • 160025Z AUTO VRB02KT 9999 BKN035 BKN044 BKN048 14/13 Q1017 BLU
  • 152355Z AUTO 18004KT 110V190 9999 FEW056 OVC086 14/13 Q1017 BLU
  • 152325Z AUTO 18003KT 110V180 9999 SCT071 OVC077 14/13 Q1017 BLU

Expired Forecast.
No reported NOTAMs for that airfield.



MET'MAP, your aeronautical weather chart ! - Copyright ORBIFLY December 2007 - Disclaimer

ORBIFLY MET'MAP TEAM :

Programming & Development : Alexandra Zaïnal
Concept & Development : Baudouin d'Aumeries
Co-Development & Prog : Marc-Olivier Méhu
Technical & hardware support : Manuel Goepfert

Contact : metmap@orbifly.com




SOURCES & CREDITS :

   NOAA